Flight Briefing for CPX411

Departure Arrival
Minneapolis-St Paul International/Wold-Chamberlain Airport (KMSP)
Click to view FAA NOTAMS
Chicago/Rockford International Airport (KRFD)
Click to view FAA NOTAMS
Departure Time Arrival Time
N/A N/A
Aircraft Distance
B757-200SF 278nm
Departure METAR Arrival METAR
KMSP 192153Z 00000KT 10SM CLR M06/M14 A3041 RMK AO2 SLP318 T10561139 KRFD 192154Z 14006KT 10SM FEW150 OVC250 M04/M11 A3050 RMK AO2 SLP343 T10391106
Suggested Route
ZMBRO7 ODI J30 COTON RFD


View recent IFR Routes data
Notes



Charts and Procedures

Charts for KMSP
No chart available
Charts for KRFD
No chart available

Ventusky Weather




{"cat":null,"equip":null,"transponder":null,"pbn":"PBN\/","maxpax":null,"oew":"0.0","mzfw":"0.0","mtow":"0.0","mlw":"0.0","maxfuel":"0.0"} DEVELOPMENTAL TEST USE ONLY